createdAt,value
2022-11-07T00:00:33.663Z,50.20
2022-11-07T00:03:02.654Z,50.30
2022-11-07T00:05:31.345Z,50.40
2022-11-07T00:08:00.297Z,50.50
2022-11-07T00:10:28.844Z,50.60
2022-11-07T00:12:59.066Z,50.60
2022-11-07T00:15:27.603Z,50.70
2022-11-07T00:17:56.398Z,50.80
2022-11-07T00:20:25.233Z,51.70
2022-11-07T00:22:54.050Z,51.10
2022-11-07T00:25:22.600Z,51.20
2022-11-07T00:27:51.414Z,51.50
2022-11-07T00:30:21.308Z,51.50
2022-11-07T00:32:50.155Z,51.70
2022-11-07T00:35:18.655Z,51.70
2022-11-07T00:37:47.636Z,51.80
2022-11-07T00:40:16.877Z,51.90
2022-11-07T00:42:45.685Z,52.00
2022-11-07T00:45:14.435Z,52.20
2022-11-07T00:47:44.543Z,52.30
2022-11-07T00:50:13.072Z,52.30
2022-11-07T00:52:41.842Z,52.40
2022-11-07T00:55:10.635Z,52.50
2022-11-07T00:57:39.429Z,52.50
2022-11-07T01:00:10.151Z,52.60
2022-11-07T01:02:39.043Z,52.70
2022-11-07T01:05:12.956Z,52.70
2022-11-07T01:07:41.926Z,52.70
2022-11-07T01:10:10.450Z,52.70
2022-11-07T01:16:18.006Z,52.80
2022-11-07T01:18:46.961Z,52.80
2022-11-07T01:21:16.992Z,52.90
2022-11-07T01:23:46.251Z,52.80
2022-11-07T01:26:16.862Z,52.70
2022-11-07T01:28:45.805Z,52.60
2022-11-07T01:31:17.640Z,52.50
2022-11-07T01:33:47.254Z,52.40
2022-11-07T01:36:19.980Z,52.20
2022-11-07T01:38:50.249Z,52.30
2022-11-07T01:41:24.212Z,52.20
2022-11-07T01:43:58.529Z,52.10
2022-11-07T01:46:31.750Z,52.10
2022-11-07T01:49:09.562Z,52.10
2022-11-07T01:51:46.731Z,52.10
2022-11-07T01:54:20.079Z,52.00
2022-11-07T01:56:49.825Z,52.00
2022-11-07T01:59:22.990Z,51.90
2022-11-07T02:01:52.735Z,51.90
2022-11-07T02:04:25.938Z,51.90
2022-11-07T02:07:02.977Z,51.90
2022-11-07T02:09:32.293Z,51.80
2022-11-07T02:12:01.239Z,51.90
2022-11-07T02:14:31.394Z,52.60
2022-11-07T02:17:01.702Z,52.00
2022-11-07T02:19:38.033Z,52.00
2022-11-07T02:22:19.208Z,52.10
2022-11-07T02:24:54.979Z,52.10
2022-11-07T02:27:29.647Z,52.10
2022-11-07T02:30:03.660Z,52.20
2022-11-07T02:32:32.425Z,52.30
2022-11-07T02:35:05.182Z,52.40
2022-11-07T02:37:37.448Z,52.40
2022-11-07T02:40:11.349Z,52.50
2022-11-07T02:42:46.454Z,52.60
2022-11-07T02:45:22.667Z,52.40
2022-11-07T02:47:51.208Z,52.50
2022-11-07T02:50:20.513Z,52.50
2022-11-07T02:52:49.183Z,52.70
2022-11-07T02:55:20.335Z,52.70
2022-11-07T02:57:48.906Z,52.90
2022-11-07T03:00:18.402Z,52.90
2022-11-07T03:02:47.946Z,52.90
2022-11-07T03:05:19.876Z,53.00
2022-11-07T03:07:50.325Z,53.20
2022-11-07T03:10:20.632Z,53.20
2022-11-07T03:12:49.268Z,53.20
2022-11-07T03:15:18.216Z,53.20
2022-11-07T03:17:46.764Z,53.20
2022-11-07T03:20:15.653Z,53.30
2022-11-07T03:22:44.199Z,53.30
2022-11-07T03:25:13.072Z,53.40
2022-11-07T03:27:49.151Z,53.40
2022-11-07T03:30:19.216Z,53.50
2022-11-07T03:32:47.756Z,53.60
2022-11-07T03:35:16.692Z,53.50
2022-11-07T03:37:47.494Z,53.50
2022-11-07T03:40:17.731Z,53.60
2022-11-07T03:42:48.279Z,53.70
2022-11-07T03:45:18.517Z,53.70
2022-11-07T03:47:48.492Z,53.60
2022-11-07T03:50:21.140Z,53.60
2022-11-07T03:52:50.457Z,53.60
2022-11-07T03:55:19.402Z,53.70
2022-11-07T03:57:49.399Z,53.80
2022-11-07T04:00:18.739Z,53.90
2022-11-07T04:02:47.646Z,54.00
2022-11-07T04:05:16.746Z,54.10
2022-11-07T04:07:45.324Z,54.20
2022-11-07T04:10:14.185Z,54.30
2022-11-07T04:13:00.368Z,54.40
2022-11-07T04:15:48.032Z,54.50
2022-11-07T04:18:16.585Z,54.50
2022-11-07T04:20:45.486Z,54.70
2022-11-07T04:23:14.309Z,54.90
2022-11-07T04:26:00.835Z,54.90
2022-11-07T04:28:29.433Z,55.40
2022-11-07T04:30:59.642Z,54.80
2022-11-07T04:33:28.220Z,54.80
2022-11-07T04:35:57.086Z,55.00
2022-11-07T04:38:25.648Z,55.00
2022-11-07T04:40:55.689Z,54.90
2022-11-07T04:43:25.422Z,54.90
2022-11-07T04:45:54.426Z,54.70
2022-11-07T04:48:24.431Z,54.60
2022-11-07T04:50:53.399Z,54.50
2022-11-07T04:53:21.947Z,54.50
2022-11-07T04:55:50.930Z,54.50
2022-11-07T04:58:19.477Z,54.50
2022-11-07T05:00:48.324Z,54.50
2022-11-07T05:03:17.435Z,54.40
2022-11-07T05:05:48.037Z,54.50
2022-11-07T05:08:16.600Z,54.60
2022-11-07T05:10:45.479Z,54.70
2022-11-07T05:13:14.396Z,54.70
2022-11-07T05:15:43.510Z,54.60
2022-11-07T05:18:12.584Z,54.70
2022-11-07T05:20:42.081Z,54.70
2022-11-07T05:23:15.893Z,54.70
2022-11-07T05:25:48.911Z,54.70
2022-11-07T05:28:28.078Z,54.70
2022-11-07T05:31:01.754Z,54.60
2022-11-07T05:33:31.023Z,54.60
2022-11-07T05:36:11.152Z,54.70
2022-11-07T05:38:43.867Z,54.80
2022-11-07T05:41:13.351Z,54.70
2022-11-07T05:43:42.192Z,54.70
2022-11-07T05:46:11.741Z,54.60
2022-11-07T05:48:41.591Z,54.60
2022-11-07T05:51:10.673Z,54.60
2022-11-07T05:53:39.474Z,54.70
2022-11-07T05:56:10.025Z,54.70
2022-11-07T05:58:39.084Z,54.90
2022-11-07T06:01:08.268Z,55.00
2022-11-07T06:03:36.913Z,55.00
2022-11-07T06:06:06.079Z,55.20
2022-11-07T06:08:34.618Z,55.50
2022-11-07T06:11:05.850Z,55.50
2022-11-07T06:13:35.825Z,55.40
2022-11-07T06:16:05.833Z,55.50
2022-11-07T06:18:41.405Z,55.50
2022-11-07T06:21:10.690Z,55.30
2022-11-07T06:23:39.366Z,55.40
2022-11-07T06:26:08.248Z,55.60
2022-11-07T06:28:38.331Z,55.60
2022-11-07T06:31:07.411Z,55.60
2022-11-07T06:33:35.991Z,55.60
2022-11-07T06:36:11.170Z,55.80
2022-11-07T06:38:41.840Z,55.80
2022-11-07T06:41:13.811Z,55.80
2022-11-07T06:43:43.926Z,55.80
2022-11-07T06:46:17.316Z,55.60
2022-11-07T06:48:46.215Z,55.60
2022-11-07T06:51:15.103Z,55.80
2022-11-07T06:53:43.690Z,55.80
2022-11-07T06:56:16.582Z,55.90
2022-11-07T06:58:46.672Z,56.40
2022-11-07T07:01:16.601Z,56.80
2022-11-07T07:03:45.648Z,57.50
2022-11-07T07:06:17.758Z,56.70
2022-11-07T07:08:47.282Z,56.60
2022-11-07T07:11:16.895Z,56.50
2022-11-07T07:13:46.839Z,56.40
2022-11-07T07:16:16.316Z,56.20
2022-11-07T07:18:44.916Z,56.10
2022-11-07T07:21:15.433Z,56.30
2022-11-07T07:23:44.024Z,56.20
2022-11-07T07:26:16.498Z,56.20
2022-11-07T07:28:46.500Z,56.00
2022-11-07T07:31:24.973Z,56.00
2022-11-07T07:33:53.900Z,55.90
2022-11-07T07:36:22.846Z,55.70
2022-11-07T07:38:52.511Z,55.50
2022-11-07T07:41:21.993Z,55.40
2022-11-07T07:43:52.029Z,55.40
2022-11-07T07:46:24.498Z,55.40
2022-11-07T07:48:53.120Z,55.60
2022-11-07T07:51:22.146Z,55.50
2022-11-07T07:53:50.740Z,55.70
2022-11-07T07:56:19.678Z,55.90
2022-11-07T07:58:48.258Z,55.90
2022-11-07T08:01:18.674Z,56.40
2022-11-07T08:04:03.122Z,55.90
2022-11-07T08:06:32.534Z,56.00
2022-11-07T08:09:01.174Z,56.00
2022-11-07T08:11:30.071Z,56.00
2022-11-07T08:14:01.514Z,56.00
2022-11-07T08:16:32.150Z,56.80
2022-11-07T08:19:00.775Z,56.00
2022-11-07T08:21:29.693Z,56.10
2022-11-07T08:23:58.378Z,55.90
2022-11-07T08:26:27.563Z,55.80
2022-11-07T08:28:56.273Z,55.70
2022-11-07T08:31:25.380Z,55.70
2022-11-07T08:33:59.024Z,55.80
2022-11-07T08:36:28.815Z,55.70
2022-11-07T08:38:57.470Z,55.50
2022-11-07T08:41:26.329Z,55.80
2022-11-07T08:43:54.883Z,55.90
2022-11-07T08:46:23.830Z,55.60
2022-11-07T08:48:53.786Z,55.20
2022-11-07T08:51:22.662Z,55.10
2022-11-07T08:53:51.281Z,55.00
2022-11-07T08:56:20.180Z,55.10
2022-11-07T08:58:48.778Z,54.80
2022-11-07T09:01:17.898Z,54.80
2022-11-07T09:03:52.889Z,54.70
2022-11-07T09:06:27.189Z,54.80
2022-11-07T09:08:55.785Z,55.00
2022-11-07T09:11:25.206Z,55.50
2022-11-07T09:13:54.984Z,54.70
2022-11-07T09:16:24.663Z,54.70
2022-11-07T09:18:53.549Z,54.40
2022-11-07T09:21:23.011Z,54.30
2022-11-07T09:23:53.816Z,54.00
2022-11-07T09:26:22.805Z,54.20
2022-11-07T09:28:54.107Z,53.70
2022-11-07T09:31:24.999Z,53.80
2022-11-07T09:33:53.585Z,53.10
2022-11-07T09:36:24.189Z,52.70
2022-11-07T09:38:56.250Z,52.50
2022-11-07T09:41:46.519Z,52.30
2022-11-07T09:44:40.635Z,51.80
2022-11-07T09:47:20.904Z,51.00
2022-11-07T09:49:53.597Z,51.90
2022-11-07T09:52:31.118Z,51.90
2022-11-07T09:55:14.249Z,50.30
2022-11-07T09:57:43.598Z,51.00
2022-11-07T10:00:18.909Z,51.10
2022-11-07T10:02:51.870Z,50.90
2022-11-07T10:05:35.338Z,50.80
2022-11-07T10:08:13.162Z,51.00
2022-11-07T10:10:52.190Z,50.70
2022-11-07T10:13:58.809Z,50.70
2022-11-07T10:16:47.815Z,50.10
2022-11-07T10:19:46.523Z,50.80
2022-11-07T10:22:34.630Z,49.90
2022-11-07T10:25:21.437Z,49.00
2022-11-07T10:28:09.653Z,49.30
2022-11-07T10:30:38.643Z,48.70
2022-11-07T10:33:24.353Z,49.20
2022-11-07T10:35:59.979Z,48.60
2022-11-07T10:38:31.480Z,48.80
2022-11-07T10:41:00.498Z,49.20
2022-11-07T10:43:37.883Z,49.10
2022-11-07T10:46:23.270Z,49.40
2022-11-07T10:48:58.343Z,49.20
2022-11-07T10:51:38.821Z,49.40
2022-11-07T10:54:21.823Z,50.20
2022-11-07T10:57:05.841Z,49.60
2022-11-07T10:59:40.591Z,48.70
2022-11-07T11:02:23.129Z,50.40
2022-11-07T11:04:56.408Z,50.00
2022-11-07T11:07:33.664Z,51.20
2022-11-07T11:10:02.896Z,49.90
2022-11-07T11:12:35.340Z,49.60
2022-11-07T11:15:11.943Z,50.40
2022-11-07T11:17:41.447Z,49.70
2022-11-07T11:20:32.153Z,49.30
2022-11-07T11:23:02.618Z,48.70
2022-11-07T11:25:31.429Z,48.10
2022-11-07T11:28:07.999Z,48.60
2022-11-07T11:30:38.381Z,47.80
2022-11-07T11:33:17.061Z,47.90
2022-11-07T11:35:54.516Z,49.30
2022-11-07T11:38:29.533Z,48.40
2022-11-07T11:41:10.542Z,49.10
2022-11-07T11:43:47.792Z,49.00
2022-11-07T11:46:29.923Z,49.10
2022-11-07T11:49:06.888Z,48.90
2022-11-07T11:51:44.102Z,48.90
2022-11-07T11:54:16.566Z,48.50
2022-11-07T11:56:54.117Z,48.90
2022-11-07T12:00:04.842Z,47.80
2022-11-07T12:03:16.097Z,49.60
2022-11-07T12:06:10.750Z,49.60
2022-11-07T12:09:04.023Z,48.90
2022-11-07T12:11:45.248Z,49.30
2022-11-07T12:14:40.573Z,48.70
2022-11-07T12:17:20.267Z,47.80
2022-11-07T12:19:59.545Z,48.60
2022-11-07T12:22:46.005Z,48.10
2022-11-07T12:25:24.876Z,47.10
2022-11-07T12:28:05.663Z,47.80
2022-11-07T12:30:48.441Z,47.00
2022-11-07T12:33:34.868Z,47.70
2022-11-07T12:36:14.577Z,46.70
2022-11-07T12:39:18.305Z,47.30
2022-11-07T12:41:58.979Z,47.30
2022-11-07T12:44:55.868Z,47.20
2022-11-07T12:47:53.567Z,46.70
2022-11-07T12:50:43.156Z,46.10
2022-11-07T12:53:33.619Z,47.20
2022-11-07T12:56:11.165Z,46.10
2022-11-07T12:58:43.839Z,47.40
2022-11-07T13:01:16.577Z,47.60
2022-11-07T13:04:00.787Z,48.90
2022-11-07T13:06:39.023Z,48.90
2022-11-07T13:09:22.726Z,48.50
2022-11-07T13:12:00.070Z,48.20
2022-11-07T13:14:34.157Z,47.70
2022-11-07T13:17:17.014Z,46.70
2022-11-07T13:19:47.671Z,47.10
2022-11-07T13:22:32.880Z,47.00
2022-11-07T13:25:28.662Z,47.40
2022-11-07T13:28:40.098Z,47.70
2022-11-07T13:31:36.832Z,47.90
2022-11-07T13:34:26.046Z,48.00
2022-11-07T13:37:03.943Z,48.20
2022-11-07T13:39:34.845Z,48.10
2022-11-07T13:42:06.820Z,48.10
2022-11-07T13:44:39.357Z,47.00
2022-11-07T13:47:18.393Z,47.00
2022-11-07T13:49:50.402Z,47.30
2022-11-07T13:52:29.257Z,46.70
2022-11-07T13:55:06.597Z,46.80
2022-11-07T13:57:42.596Z,46.30
2022-11-07T14:00:15.375Z,46.50
2022-11-07T14:02:53.574Z,45.80
2022-11-07T14:05:25.594Z,47.10
2022-11-07T14:08:00.787Z,46.00
2022-11-07T14:10:38.529Z,47.60
2022-11-07T14:13:11.837Z,48.00
2022-11-07T14:15:48.425Z,47.40
2022-11-07T14:18:19.765Z,47.90
2022-11-07T14:20:50.087Z,47.10
2022-11-07T14:23:22.556Z,47.80
2022-11-07T14:26:00.544Z,48.70
2022-11-07T14:28:37.180Z,47.40
2022-11-07T14:31:09.210Z,48.00
2022-11-07T14:33:37.759Z,48.70
2022-11-07T14:36:08.113Z,48.60
2022-11-07T14:38:36.872Z,48.10
2022-11-07T14:41:06.101Z,48.90
2022-11-07T14:43:36.103Z,48.80
2022-11-07T14:46:13.953Z,48.70
2022-11-07T14:48:45.211Z,48.40
2022-11-07T14:51:18.285Z,48.70
2022-11-07T14:53:57.028Z,48.10
2022-11-07T14:56:31.161Z,48.30
2022-11-07T14:59:02.118Z,48.10
2022-11-07T15:01:34.392Z,47.50
2022-11-07T15:04:17.090Z,47.50
2022-11-07T15:06:46.998Z,47.50
2022-11-07T15:09:16.288Z,47.20
2022-11-07T15:11:58.443Z,47.80
2022-11-07T15:14:35.179Z,49.00
2022-11-07T15:17:05.504Z,49.10
2022-11-07T15:19:36.425Z,48.90
2022-11-07T15:22:07.374Z,48.40
2022-11-07T15:24:43.344Z,48.70
2022-11-07T15:27:22.720Z,48.20
2022-11-07T15:29:56.993Z,48.00
2022-11-07T15:32:30.019Z,47.50
2022-11-07T15:35:12.104Z,47.00
2022-11-07T15:37:55.797Z,46.80
2022-11-07T15:40:27.352Z,46.40
2022-11-07T15:42:56.385Z,46.70
2022-11-07T15:45:26.565Z,47.20
2022-11-07T15:47:56.350Z,47.50
2022-11-07T15:50:26.210Z,47.10
2022-11-07T15:52:55.947Z,46.80
2022-11-07T15:55:25.138Z,47.30
2022-11-07T15:57:56.431Z,47.00
2022-11-07T16:00:27.933Z,46.70
2022-11-07T16:02:58.604Z,47.50
2022-11-07T16:05:27.226Z,47.70
2022-11-07T16:07:56.085Z,47.20
2022-11-07T16:10:27.359Z,47.60
2022-11-07T16:12:58.766Z,47.50
2022-11-07T16:15:32.281Z,46.90
2022-11-07T16:18:01.108Z,46.60
2022-11-07T16:20:33.509Z,46.90
2022-11-07T16:23:03.177Z,47.90
2022-11-07T16:25:31.995Z,48.00
2022-11-07T16:28:03.323Z,48.30
2022-11-07T16:30:33.804Z,48.20
2022-11-07T16:33:02.705Z,48.10
2022-11-07T16:35:31.380Z,47.50
2022-11-07T16:38:00.608Z,47.80
2022-11-07T16:40:29.237Z,48.30
2022-11-07T16:42:58.100Z,48.50
2022-11-07T16:45:26.912Z,48.40
2022-11-07T16:47:57.135Z,48.20
2022-11-07T16:50:25.948Z,48.00
2022-11-07T16:52:54.852Z,47.90
2022-11-07T16:55:23.448Z,47.90
2022-11-07T16:57:52.282Z,48.10
2022-11-07T17:00:24.155Z,47.70
2022-11-07T17:02:53.163Z,47.40
2022-11-07T17:05:23.289Z,47.70
2022-11-07T17:07:54.314Z,47.70
2022-11-07T17:10:23.017Z,48.10
2022-11-07T17:12:51.854Z,48.40
2022-11-07T17:15:20.412Z,47.80
2022-11-07T17:17:49.383Z,48.20
2022-11-07T17:20:49.456Z,48.10
2022-11-07T17:23:12.669Z,47.70
2022-11-07T17:25:43.236Z,47.40
2022-11-07T17:28:12.117Z,47.80
2022-11-07T17:30:40.700Z,48.20
2022-11-07T17:33:09.873Z,47.90
2022-11-07T17:35:40.359Z,48.30
2022-11-07T17:38:17.092Z,48.40
2022-11-07T17:40:46.255Z,48.20
2022-11-07T17:43:15.098Z,48.30
2022-11-07T17:45:43.722Z,48.30
2022-11-07T17:48:12.693Z,48.30
2022-11-07T17:50:42.632Z,48.00
2022-11-07T17:53:11.570Z,48.20
2022-11-07T17:55:40.187Z,48.40
2022-11-07T17:58:11.003Z,48.70
2022-11-07T18:00:39.676Z,48.90
2022-11-07T18:03:08.746Z,48.50
2022-11-07T18:05:37.427Z,48.60
2022-11-07T18:08:15.418Z,48.70
2022-11-07T18:11:01.803Z,48.60
2022-11-07T18:13:30.668Z,48.70
2022-11-07T18:15:59.364Z,48.70
2022-11-07T18:18:28.223Z,48.70
2022-11-07T18:20:56.782Z,48.70
2022-11-07T18:23:27.152Z,48.60
2022-11-07T18:26:04.443Z,49.40
2022-11-07T18:28:36.098Z,48.60
2022-11-07T18:31:07.480Z,48.70
2022-11-07T18:33:37.260Z,48.70
2022-11-07T18:36:09.788Z,48.50
2022-11-07T18:38:40.646Z,48.40
2022-11-07T18:41:13.348Z,48.40
2022-11-07T18:43:42.882Z,48.50
2022-11-07T18:46:16.559Z,48.50
2022-11-07T18:48:45.463Z,48.40
2022-11-07T18:51:18.352Z,49.20
2022-11-07T18:53:48.846Z,48.60
2022-11-07T18:56:17.746Z,48.70
2022-11-07T18:58:46.739Z,48.80
2022-11-07T19:01:18.530Z,48.90
2022-11-07T19:03:47.944Z,48.90
2022-11-07T19:06:20.382Z,49.00
2022-11-07T19:08:51.190Z,49.00
2022-11-07T19:11:25.474Z,49.10
2022-11-07T19:13:55.273Z,49.10
2022-11-07T19:16:24.717Z,49.10
2022-11-07T19:18:53.722Z,49.20
2022-11-07T19:21:23.553Z,49.40
2022-11-07T19:23:54.221Z,49.40
2022-11-07T19:26:24.865Z,49.40
2022-11-07T19:28:54.350Z,49.30
2022-11-07T19:31:22.983Z,49.30
2022-11-07T19:33:51.870Z,49.40
2022-11-07T19:36:39.838Z,49.50
2022-11-07T19:39:10.603Z,49.50
2022-11-07T19:41:39.159Z,49.60
2022-11-07T19:44:07.991Z,49.70
2022-11-07T19:46:37.219Z,49.70
2022-11-07T19:49:06.113Z,49.80
2022-11-07T19:51:36.297Z,49.90
2022-11-07T19:54:07.554Z,50.00
2022-11-07T19:56:37.545Z,50.20
2022-11-07T19:59:06.789Z,50.30
2022-11-07T20:01:36.678Z,50.30
2022-11-07T20:04:08.758Z,50.30
2022-11-07T20:06:39.923Z,50.30
2022-11-07T20:09:16.241Z,50.30
2022-11-07T20:11:46.246Z,50.10
2022-11-07T20:14:15.263Z,50.10
2022-11-07T20:16:43.812Z,49.90
2022-11-07T20:19:12.766Z,50.00
2022-11-07T20:21:41.544Z,50.20
2022-11-07T20:24:10.684Z,50.20
2022-11-07T20:26:39.564Z,50.40
2022-11-07T20:29:10.449Z,50.50
2022-11-07T20:31:40.062Z,51.30
2022-11-07T20:34:12.748Z,50.70
2022-11-07T20:36:41.314Z,50.90
2022-11-07T20:39:12.868Z,51.00
2022-11-07T20:41:42.536Z,51.00
2022-11-07T20:44:16.418Z,51.00
2022-11-07T20:46:46.972Z,51.10
2022-11-07T20:49:17.867Z,50.80
2022-11-07T20:51:47.076Z,50.80
2022-11-07T20:54:17.164Z,50.90
2022-11-07T20:56:47.230Z,51.10
2022-11-07T20:59:17.473Z,51.20
2022-11-07T21:01:46.189Z,51.20
2022-11-07T21:04:16.420Z,51.30
2022-11-07T21:06:45.397Z,51.20
2022-11-07T21:09:14.542Z,51.30
2022-11-07T21:11:43.138Z,51.10
2022-11-07T21:14:12.120Z,50.90
2022-11-07T21:16:42.247Z,50.90
2022-11-07T21:19:15.941Z,50.60
2022-11-07T21:21:44.756Z,50.50
2022-11-07T21:24:13.608Z,51.10
2022-11-07T21:26:43.333Z,50.10
2022-11-07T21:29:12.335Z,50.10
2022-11-07T21:31:42.796Z,50.20
2022-11-07T21:34:11.828Z,50.30
2022-11-07T21:36:40.371Z,50.50
2022-11-07T21:39:09.267Z,51.10
2022-11-07T21:41:38.403Z,50.30
2022-11-07T21:44:07.310Z,50.20
2022-11-07T21:46:35.902Z,50.20
2022-11-07T21:49:06.539Z,50.10
2022-11-07T21:51:36.393Z,50.00
2022-11-07T21:54:07.034Z,50.00
2022-11-07T21:56:38.574Z,49.80
2022-11-07T21:59:10.246Z,49.90
2022-11-07T22:01:40.484Z,49.90
2022-11-07T22:04:13.685Z,50.00
2022-11-07T22:06:45.359Z,50.00
2022-11-07T22:09:17.689Z,49.90
2022-11-07T22:11:46.453Z,49.80
2022-11-07T22:14:17.042Z,49.80
2022-11-07T22:16:46.173Z,49.80
2022-11-07T22:19:17.529Z,49.80
2022-11-07T22:21:46.459Z,50.50
2022-11-07T22:24:15.269Z,49.80
2022-11-07T22:26:43.923Z,49.80
2022-11-07T22:29:12.791Z,49.80
2022-11-07T22:31:41.330Z,49.80
2022-11-07T22:34:11.394Z,49.70
2022-11-07T22:36:41.521Z,49.70
2022-11-07T22:39:10.506Z,49.80
2022-11-07T22:41:39.069Z,50.00
2022-11-07T22:44:07.945Z,50.10
2022-11-07T22:46:36.670Z,50.10
2022-11-07T22:49:05.994Z,50.10
2022-11-07T22:51:36.451Z,50.30
2022-11-07T22:54:09.237Z,50.50
2022-11-07T22:56:38.394Z,50.80
2022-11-07T22:59:08.510Z,50.90
2022-11-07T23:01:39.092Z,51.00
2022-11-07T23:04:09.611Z,51.00
2022-11-07T23:06:38.165Z,51.00
2022-11-07T23:09:08.393Z,51.60
2022-11-07T23:11:46.034Z,51.00
2022-11-07T23:14:19.298Z,50.90
2022-11-07T23:16:50.423Z,50.80
2022-11-07T23:19:21.812Z,50.60
2022-11-07T23:21:51.900Z,50.50
2022-11-07T23:24:22.370Z,50.50
2022-11-07T23:26:51.129Z,50.70
2022-11-07T23:29:23.154Z,50.80
2022-11-07T23:31:53.308Z,50.90
2022-11-07T23:34:23.355Z,51.00
2022-11-07T23:36:52.908Z,51.00
2022-11-07T23:39:26.003Z,50.80
2022-11-07T23:41:54.562Z,50.80
2022-11-07T23:44:23.406Z,50.90
2022-11-07T23:47:09.592Z,50.90
2022-11-07T23:49:55.975Z,51.00
2022-11-07T23:52:24.738Z,51.20
2022-11-07T23:55:12.402Z,51.30
2022-11-07T23:57:54.847Z,51.30
